Time;durP1;ratioP1;P1;durP2;ratioP2;P2;SDS_P1;SDS_P2;PMS_P1;PMS_P2;Temp;Humidity;BMP_temperature;BMP_pressure;BME280_temperature;BME280_humidity;BME280_pressure;Samples;Min_cycle;Max_cycle;Signal;HPM_P1;HPM_P2
2024/03/12 00:00:16;;;;;;;42.03;25.07;;;5.90;99.90;;;;;;5088544;28;20190;-50
2024/03/12 00:02:44;;;;;;;39.23;25.33;;;5.90;99.90;;;;;;5089545;28;20221;-50
2024/03/12 00:05:13;;;;;;;41.87;24.67;;;5.90;99.90;;;;;;5073301;28;20225;-52
2024/03/12 00:07:42;;;;;;;40.60;25.97;;;5.90;99.90;;;;;;5087848;28;20201;-48
2024/03/12 00:10:14;;;;;;;40.73;26.27;;;5.90;99.90;;;;;;5079358;28;20206;-51
2024/03/12 00:12:44;;;;;;;40.57;25.90;;;5.90;99.90;;;;;;5097441;28;20248;-49
2024/03/12 00:15:11;;;;;;;41.50;24.80;;;5.90;99.90;;;;;;5087955;28;20208;-51
2024/03/12 00:17:39;;;;;;;42.40;25.13;;;5.90;99.90;;;;;;5093825;28;20258;-49
2024/03/12 00:20:17;;;;;;;40.30;26.23;;;5.90;99.90;;;;;;5079568;28;20196;-50
2024/03/12 00:22:45;;;;;;;41.03;25.40;;;5.90;99.90;;;;;;5082955;28;20220;-52
2024/03/12 00:25:15;;;;;;;41.87;25.73;;;5.90;99.90;;;;;;5071105;28;20283;-51
2024/03/12 00:27:42;;;;;;;44.10;26.13;;;5.90;99.90;;;;;;5094945;28;20572;-48
2024/03/12 00:30:11;;;;;;;41.90;26.10;;;5.90;99.90;;;;;;5093750;28;20233;-49
2024/03/12 00:32:39;;;;;;;42.83;27.43;;;5.90;99.90;;;;;;5086160;28;20298;-49
2024/03/12 00:35:07;;;;;;;44.23;26.93;;;5.90;99.90;;;;;;5082857;28;20648;-51
2024/03/12 00:37:34;;;;;;;41.93;26.13;;;5.90;99.90;;;;;;5083646;28;20213;-47
2024/03/12 00:40:01;;;;;;;47.60;26.63;;;5.90;99.90;;;;;;5089691;28;20194;-49
2024/03/12 00:42:29;;;;;;;43.03;27.50;;;5.90;99.90;;;;;;5069656;28;20308;-47
2024/03/12 00:44:56;;;;;;;47.50;26.70;;;5.90;99.90;;;;;;5088463;28;20225;-48
2024/03/12 00:47:23;;;;;;;39.00;26.70;;;5.90;99.90;;;;;;5082155;28;21118;-47
2024/03/12 00:49:50;;;;;;;43.47;27.97;;;5.90;99.90;;;;;;5089183;28;20194;-47
2024/03/12 00:52:17;;;;;;;46.40;26.43;;;6.00;99.90;;;;;;5065475;28;20233;-49
2024/03/12 00:54:45;;;;;;;50.43;27.20;;;6.00;99.90;;;;;;5094809;28;20821;-49
2024/03/12 00:57:13;;;;;;;47.17;27.13;;;6.00;99.90;;;;;;5077742;28;20657;-51
2024/03/12 00:59:41;;;;;;;40.13;26.03;;;6.00;99.90;;;;;;5095657;28;20190;-48
2024/03/12 01:02:10;;;;;;;44.20;27.00;;;6.00;99.90;;;;;;5091219;28;20248;-53
2024/03/12 01:04:38;;;;;;;42.87;26.40;;;6.00;99.90;;;;;;5092884;28;20209;-51
2024/03/12 01:07:07;;;;;;;45.97;26.87;;;6.00;99.90;;;;;;5072487;28;20666;-50
2024/03/12 01:09:39;;;;;;;44.77;27.30;;;6.00;99.90;;;;;;5097169;28;20247;-51
2024/03/12 01:12:09;;;;;;;44.23;28.07;;;6.00;99.90;;;;;;5079887;28;20225;-47
2024/03/12 01:14:36;;;;;;;44.07;27.17;;;6.00;99.90;;;;;;5093417;28;20258;-48
2024/03/12 01:17:06;;;;;;;40.17;26.63;;;6.00;99.90;;;;;;5096792;28;20679;-49
2024/03/12 01:19:33;;;;;;;37.93;26.20;;;6.00;99.90;;;;;;5088787;28;20290;-47
2024/03/12 01:22:00;;;;;;;44.20;27.40;;;6.00;99.90;;;;;;5071100;28;20267;-50
2024/03/12 01:24:27;;;;;;;40.03;25.97;;;6.00;99.90;;;;;;5092073;28;20217;-50
2024/03/12 01:26:55;;;;;;;40.10;25.33;;;6.00;99.90;;;;;;5082908;28;20221;-47
2024/03/12 01:29:22;;;;;;;36.87;25.23;;;6.00;99.90;;;;;;5096173;28;20185;-49
2024/03/12 01:31:52;;;;;;;38.83;24.93;;;5.90;99.90;;;;;;5101999;28;20213;-51
2024/03/12 01:34:22;;;;;;;35.63;24.93;;;5.90;99.90;;;;;;5086043;28;20201;-50
2024/03/12 01:36:49;;;;;;;43.20;25.43;;;5.90;99.90;;;;;;5100974;28;20296;-47
2024/03/12 01:39:24;;;;;;;37.67;26.27;;;5.90;99.90;;;;;;5069985;28;20676;-51
2024/03/12 01:41:52;;;;;;;45.27;26.07;;;5.90;99.90;;;;;;5091954;28;20318;-48
2024/03/12 01:44:19;;;;;;;39.20;25.90;;;5.90;99.90;;;;;;5074765;28;20213;-52
2024/03/12 01:46:46;;;;;;;40.37;25.77;;;5.90;99.90;;;;;;5096327;28;20630;-51
2024/03/12 01:49:15;;;;;;;37.23;25.50;;;5.80;99.90;;;;;;5090551;28;20198;-51
2024/03/12 01:51:43;;;;;;;46.73;26.27;;;5.80;99.90;;;;;;5092024;28;20217;-49
2024/03/12 01:54:11;;;;;;;35.87;24.50;;;5.80;99.90;;;;;;5066573;28;20214;-50
2024/03/12 01:56:38;;;;;;;36.47;24.50;;;5.70;99.90;;;;;;5095800;28;20272;-49
2024/03/12 01:59:05;;;;;;;39.03;24.13;;;5.70;99.90;;;;;;5084392;28;20201;-51
2024/03/12 02:01:32;;;;;;;35.90;23.87;;;5.60;99.90;;;;;;5099932;28;20189;-48
2024/03/12 02:04:01;;;;;;;35.70;24.37;;;5.60;99.90;;;;;;5096138;28;20573;-49
2024/03/12 02:06:28;;;;;;;33.00;23.33;;;5.50;99.90;;;;;;5087410;28;20258;-52
2024/03/12 02:08:59;;;;;;;33.47;24.17;;;5.50;99.90;;;;;;5093609;28;20205;-50
2024/03/12 02:11:26;;;;;;;30.43;21.43;;;5.50;99.90;;;;;;5061929;27;20189;-49
2024/03/12 02:13:53;;;;;;;34.90;22.93;;;5.40;99.90;;;;;;5075641;28;20276;-48
2024/03/12 02:16:20;;;;;;;34.07;23.43;;;5.40;99.90;;;;;;5091022;28;20193;-47
2024/03/12 02:18:47;;;;;;;34.73;23.13;;;5.40;99.90;;;;;;5092111;28;20198;-50
2024/03/12 02:21:14;;;;;;;34.03;22.00;;;5.30;99.90;;;;;;5087444;28;20197;-51
2024/03/12 02:23:43;;;;;;;29.80;21.57;;;5.30;99.90;;;;;;5090987;28;20202;-46
2024/03/12 02:26:11;;;;;;;31.00;22.97;;;5.20;99.90;;;;;;5059873;28;20592;-52
2024/03/12 02:28:38;;;;;;;31.80;22.87;;;5.20;99.90;;;;;;5089648;28;20923;-48
2024/03/12 02:31:06;;;;;;;30.03;21.43;;;5.20;99.90;;;;;;5076273;28;20209;-53
2024/03/12 02:33:33;;;;;;;31.27;22.43;;;5.20;99.90;;;;;;5087951;28;20845;-47
2024/03/12 02:36:00;;;;;;;31.93;21.43;;;5.20;99.90;;;;;;5082282;28;20205;-50
2024/03/12 02:38:28;;;;;;;44.17;22.50;;;5.20;99.90;;;;;;5085473;28;20297;-47
2024/03/12 02:40:56;;;;;;;29.67;22.00;;;5.20;99.90;;;;;;5085436;28;20822;-51
2024/03/12 02:43:23;;;;;;;33.03;22.10;;;5.20;99.90;;;;;;5076175;28;20209;-51
2024/03/12 02:45:51;;;;;;;41.30;22.27;;;5.10;99.90;;;;;;5073409;28;20233;-47
2024/03/12 02:48:17;;;;;;;39.30;22.93;;;5.20;99.90;;;;;;5085440;28;20225;-49
2024/03/12 02:50:44;;;;;;;36.10;20.60;;;5.10;99.90;;;;;;5091580;28;20684;-46
2024/03/12 02:53:11;;;;;;;42.43;21.57;;;5.10;99.90;;;;;;5081896;28;20775;-49
2024/03/12 02:55:39;;;;;;;48.43;21.77;;;5.10;99.90;;;;;;5095166;28;20638;-47
2024/03/12 02:58:07;;;;;;;61.50;22.67;;;5.10;99.90;;;;;;5063297;28;20262;-51
2024/03/12 03:00:35;;;;;;;57.17;22.77;;;5.10;99.90;;;;;;5081585;28;20194;-48
2024/03/12 03:03:02;;;;;;;47.13;21.83;;;5.00;99.90;;;;;;5072169;28;20218;-48
2024/03/12 03:05:29;;;;;;;30.73;20.67;;;5.00;99.90;;;;;;5089473;28;20244;-48
2024/03/12 03:07:56;;;;;;;107.47;23.00;;;5.00;99.90;;;;;;5082713;28;20251;-52
2024/03/12 03:10:23;;;;;;;36.03;20.60;;;5.00;99.90;;;;;;5077975;28;20888;-51
2024/03/12 03:12:50;;;;;;;67.37;20.10;;;5.00;99.90;;;;;;5062942;28;20284;-48
2024/03/12 03:15:20;;;;;;;72.20;21.67;;;5.00;99.90;;;;;;5083020;28;20190;-48
2024/03/12 03:17:48;;;;;;;39.07;21.13;;;5.00;99.90;;;;;;5077112;28;20201;-52
2024/03/12 03:20:15;;;;;;;35.13;21.47;;;5.00;99.90;;;;;;5088271;28;20271;-47
2024/03/12 03:22:42;;;;;;;34.10;20.47;;;5.00;99.90;;;;;;5093778;28;20695;-47
2024/03/12 03:25:11;;;;;;;34.73;22.27;;;5.00;99.90;;;;;;5082407;28;20221;-49
2024/03/12 03:27:38;;;;;;;32.90;21.23;;;5.00;99.90;;;;;;5062289;28;20697;-50
2024/03/12 03:30:07;;;;;;;113.37;23.80;;;5.00;99.90;;;;;;5089977;28;20274;-52
2024/03/12 03:32:35;;;;;;;35.17;20.13;;;5.00;99.90;;;;;;5076539;28;20214;-52
2024/03/12 03:35:03;;;;;;;58.50;20.20;;;4.90;99.90;;;;;;5087423;28;20552;-51
2024/03/12 03:37:34;;;;;;;32.13;21.60;;;4.90;99.90;;;;;;5094443;28;20264;-51
2024/03/12 03:40:04;;;;;;;73.00;20.77;;;4.90;99.90;;;;;;5087693;28;20622;-52
2024/03/12 03:42:30;;;;;;;45.07;20.60;;;4.90;99.90;;;;;;5059859;28;21808;-48
2024/03/12 03:44:57;;;;;;;45.43;20.83;;;4.90;99.90;;;;;;5087628;28;20214;-50
2024/03/12 03:47:24;;;;;;;56.27;20.60;;;4.90;99.90;;;;;;5074036;28;20312;-52
2024/03/12 03:49:52;;;;;;;54.17;21.73;;;4.90;99.90;;;;;;5087309;28;20268;-52
2024/03/12 03:52:19;;;;;;;46.43;20.33;;;4.80;99.90;;;;;;5088499;28;20796;-51
2024/03/12 03:54:46;;;;;;;67.80;20.13;;;4.80;99.90;;;;;;5090443;28;20201;-48
2024/03/12 03:57:13;;;;;;;48.03;20.63;;;4.80;99.90;;;;;;5057733;28;20295;-50
2024/03/12 03:59:40;;;;;;;67.50;22.10;;;4.80;99.90;;;;;;5089157;28;20320;-50
2024/03/12 04:02:06;;;;;;;36.93;19.83;;;4.80;99.90;;;;;;5090002;28;20206;-50
2024/03/12 04:04:35;;;;;;;67.17;21.70;;;4.70;99.90;;;;;;5074166;28;20208;-49
2024/03/12 04:07:04;;;;;;;57.60;20.23;;;4.70;99.90;;;;;;5092539;28;20569;-52
2024/03/12 04:09:31;;;;;;;79.97;21.27;;;4.70;99.90;;;;;;5094836;28;20200;-48
2024/03/12 04:11:58;;;;;;;59.97;20.73;;;4.70;99.90;;;;;;5080089;28;20221;-48
2024/03/12 04:14:25;;;;;;;44.73;19.30;;;4.60;99.90;;;;;;5063870;28;20495;-51
2024/03/12 04:16:52;;;;;;;27.63;19.47;;;4.60;99.90;;;;;;5094084;28;20630;-51
2024/03/12 04:19:20;;;;;;;72.33;20.27;;;4.60;99.90;;;;;;5077969;28;20195;-51
2024/03/12 04:21:46;;;;;;;32.07;19.37;;;4.60;99.90;;;;;;5098562;28;20217;-50
2024/03/12 04:24:15;;;;;;;27.43;19.30;;;4.60;99.90;;;;;;5096566;28;20246;-49
2024/03/12 04:26:45;;;;;;;27.27;20.20;;;4.60;99.90;;;;;;5092613;28;20228;-50
2024/03/12 04:29:12;;;;;;;29.20;20.43;;;4.60;99.90;;;;;;5063847;28;20206;-51
2024/03/12 04:31:39;;;;;;;62.50;22.20;;;4.60;99.90;;;;;;5097114;28;20247;-49
2024/03/12 04:34:08;;;;;;;70.60;20.27;;;4.60;99.90;;;;;;5078419;28;20205;-51
2024/03/12 04:36:35;;;;;;;43.20;20.17;;;4.50;99.90;;;;;;5099427;28;20202;-51
2024/03/12 04:39:16;;;;;;;103.40;21.33;;;4.40;99.90;;;;;;5091104;28;20717;-53
2024/03/12 04:41:45;;;;;;;47.90;19.07;;;4.40;99.90;;;;;;5082320;28;20308;-49
2024/03/12 04:44:12;;;;;;;49.10;18.87;;;4.40;99.90;;;;;;5091258;28;20203;-51
2024/03/12 04:46:44;;;;;;;77.30;21.17;;;4.40;99.90;;;;;;5069977;28;20723;-49
2024/03/12 04:49:11;;;;;;;67.77;19.60;;;4.40;99.90;;;;;;5074919;28;20206;-49
2024/03/12 04:51:40;;;;;;;43.80;18.43;;;4.40;99.90;;;;;;5096418;28;20217;-48
2024/03/12 04:54:07;;;;;;;77.97;19.80;;;4.30;99.90;;;;;;5087661;28;20198;-51
2024/03/12 04:56:34;;;;;;;47.57;19.97;;;4.30;99.90;;;;;;5085134;28;20202;-49
2024/03/12 04:59:02;;;;;;;49.80;20.37;;;4.30;99.90;;;;;;5091193;28;20652;-52
2024/03/12 05:01:30;;;;;;;71.57;21.33;;;4.30;99.90;;;;;;5059216;28;20193;-55
2024/03/12 05:03:57;;;;;;;33.17;20.23;;;4.30;99.90;;;;;;5069939;28;20202;-48
2024/03/12 05:06:24;;;;;;;27.27;18.43;;;4.30;99.90;;;;;;5075500;28;20275;-48
2024/03/12 05:08:51;;;;;;;33.70;20.83;;;4.40;99.90;;;;;;5090650;28;20201;-50
2024/03/12 05:11:18;;;;;;;36.03;20.73;;;4.40;99.90;;;;;;5086824;28;20206;-51
2024/03/12 05:13:46;;;;;;;39.43;19.77;;;4.40;99.90;;;;;;5096523;28;20213;-48
2024/03/12 05:16:14;;;;;;;32.40;19.87;;;4.40;99.90;;;;;;5061279;28;20647;-50
2024/03/12 05:18:42;;;;;;;29.57;19.37;;;4.40;99.90;;;;;;5085576;28;20246;-49
2024/03/12 05:21:09;;;;;;;31.07;20.77;;;4.40;99.90;;;;;;5077443;28;20202;-53
2024/03/12 05:23:36;;;;;;;33.57;19.73;;;4.40;99.90;;;;;;5076558;28;21368;-51
2024/03/12 05:26:04;;;;;;;29.70;19.80;;;4.40;99.90;;;;;;5088844;28;20220;-47
2024/03/12 05:28:32;;;;;;;28.53;20.80;;;4.40;99.90;;;;;;5076924;28;20205;-49
2024/03/12 05:30:58;;;;;;;26.77;19.57;;;4.50;99.90;;;;;;5086771;28;20282;-50
2024/03/12 05:33:29;;;;;;;28.23;19.97;;;4.50;99.90;;;;;;5059785;28;20231;-49
2024/03/12 05:35:56;;;;;;;24.97;19.10;;;4.50;99.90;;;;;;5063068;28;20439;-50
2024/03/12 05:38:32;;;;;;;29.27;21.20;;;4.50;99.90;;;;;;5096007;28;20190;-48
2024/03/12 05:41:14;;;;;;;27.73;19.53;;;4.50;99.90;;;;;;5082353;28;20197;-52
2024/03/12 05:49:12;;;;;;;25.47;19.57;;;4.60;99.90;;;;;;5080621;28;20193;-52
2024/03/12 05:51:40;;;;;;;24.17;19.50;;;4.60;99.90;;;;;;5081675;28;20225;-52
2024/03/12 05:54:08;;;;;;;28.93;20.37;;;4.60;99.90;;;;;;5087987;28;20209;-52
2024/03/12 05:56:37;;;;;;;28.17;20.57;;;4.60;99.90;;;;;;5084699;28;20224;-51
2024/03/12 05:59:04;;;;;;;26.07;21.03;;;4.70;99.90;;;;;;5079286;28;20859;-48
2024/03/12 06:01:31;;;;;;;28.50;20.77;;;4.70;99.90;;;;;;5084135;28;20189;-49
2024/03/12 06:03:58;;;;;;;27.17;20.80;;;4.70;99.90;;;;;;5060766;28;20290;-48
2024/03/12 06:06:26;;;;;;;27.67;20.63;;;4.70;99.90;;;;;;5090090;28;20267;-48
2024/03/12 06:08:53;;;;;;;27.33;20.80;;;4.70;99.90;;;;;;5071751;28;20190;-51
2024/03/12 06:11:20;;;;;;;26.83;20.13;;;4.70;99.90;;;;;;5084740;28;20212;-51
2024/03/12 06:13:47;;;;;;;27.30;20.20;;;4.80;99.90;;;;;;5086608;28;20313;-53
2024/03/12 06:16:18;;;;;;;28.73;21.47;;;4.70;99.90;;;;;;5085809;28;20212;-51
2024/03/12 06:18:45;;;;;;;28.10;20.97;;;4.80;99.90;;;;;;5067362;28;20214;-52
2024/03/12 06:21:12;;;;;;;32.57;21.77;;;4.80;99.90;;;;;;5090074;28;20189;-49
2024/03/12 06:23:40;;;;;;;30.10;21.27;;;4.80;99.90;;;;;;5076667;28;20213;-49
2024/03/12 06:26:07;;;;;;;25.67;19.77;;;4.80;99.90;;;;;;5089225;28;20209;-48
2024/03/12 06:28:35;;;;;;;26.53;19.97;;;4.90;99.90;;;;;;5065067;28;20229;-52
2024/03/12 06:31:03;;;;;;;24.57;19.47;;;4.90;99.90;;;;;;5070174;28;20189;-46
2024/03/12 06:33:31;;;;;;;29.97;22.20;;;4.90;99.90;;;;;;5051377;28;20966;-49
2024/03/12 06:35:57;;;;;;;25.13;19.37;;;5.00;99.90;;;;;;5092651;28;20201;-53
2024/03/12 06:38:24;;;;;;;26.00;19.90;;;5.00;99.90;;;;;;5070077;28;20220;-49
2024/03/12 06:40:52;;;;;;;25.17;20.03;;;5.00;99.90;;;;;;5062227;28;20324;-46
2024/03/12 06:43:21;;;;;;;26.50;20.87;;;5.00;99.90;;;;;;5091792;28;20300;-46
2024/03/12 06:45:47;;;;;;;27.00;20.30;;;5.10;99.90;;;;;;5078099;28;21129;-45
2024/03/12 06:48:17;;;;;;;26.60;21.30;;;5.10;99.90;;;;;;5073500;28;20225;-46
2024/03/12 06:50:45;;;;;;;25.90;20.77;;;5.10;99.90;;;;;;5081542;28;20228;-47
2024/03/12 06:53:14;;;;;;;26.60;20.47;;;5.10;99.90;;;;;;5076638;28;20222;-46
2024/03/12 06:55:41;;;;;;;27.37;20.40;;;5.20;99.90;;;;;;5093087;28;20193;-46
2024/03/12 06:58:11;;;;;;;27.80;21.40;;;5.20;99.90;;;;;;5093166;28;20588;-46
2024/03/12 07:00:40;;;;;;;29.27;21.53;;;5.20;99.90;;;;;;5069873;28;20311;-47
2024/03/12 07:03:07;;;;;;;25.77;20.37;;;5.20;99.90;;;;;;5073156;28;20222;-45
2024/03/12 07:05:36;;;;;;;27.20;21.60;;;5.30;99.90;;;;;;5062684;28;20206;-46
2024/03/12 07:08:05;;;;;;;28.03;21.40;;;5.30;99.90;;;;;;5093043;28;20196;-46
2024/03/12 07:10:32;;;;;;;28.00;20.53;;;5.30;99.90;;;;;;5072954;28;20205;-47
2024/03/12 07:13:00;;;;;;;25.77;20.37;;;5.30;99.90;;;;;;5090566;28;20241;-50
2024/03/12 07:15:31;;;;;;;26.27;20.53;;;5.40;99.90;;;;;;5077601;28;20205;-47
2024/03/12 07:17:58;;;;;;;27.13;20.70;;;5.40;99.90;;;;;;5084413;28;20198;-48
2024/03/12 07:20:27;;;;;;;26.20;20.97;;;5.40;99.90;;;;;;5061815;28;20265;-48
2024/03/12 07:22:56;;;;;;;24.43;19.80;;;5.40;99.90;;;;;;5087544;28;20214;-47
2024/03/12 07:25:25;;;;;;;27.57;20.50;;;5.50;99.90;;;;;;5081384;28;20258;-48
2024/03/12 07:27:53;;;;;;;26.63;20.87;;;5.50;99.90;;;;;;5080218;28;20293;-47
2024/03/12 07:30:21;;;;;;;35.47;21.47;;;5.50;99.90;;;;;;5081730;28;20209;-46
2024/03/12 07:32:49;;;;;;;27.20;21.40;;;5.50;99.90;;;;;;5078612;28;20218;-46
2024/03/12 07:35:17;;;;;;;26.70;20.63;;;5.60;99.90;;;;;;5063954;28;20214;-48
2024/03/12 07:37:45;;;;;;;24.60;20.43;;;5.60;99.90;;;;;;5085499;28;20383;-46
2024/03/12 07:40:15;;;;;;;27.83;21.17;;;5.60;99.90;;;;;;5074748;28;20224;-46
2024/03/12 07:42:42;;;;;;;26.13;21.03;;;5.60;99.90;;;;;;5083020;28;20228;-47
2024/03/12 07:45:10;;;;;;;28.17;21.53;;;5.60;99.90;;;;;;5082104;28;20198;-47
2024/03/12 07:47:39;;;;;;;25.90;21.67;;;5.60;99.90;;;;;;5056860;28;20209;-48
2024/03/12 07:50:09;;;;;;;29.03;22.27;;;5.60;99.90;;;;;;5055938;28;20635;-48
2024/03/12 07:52:36;;;;;;;28.23;20.97;;;5.60;99.90;;;;;;5082378;28;20623;-46
2024/03/12 07:55:03;;;;;;;25.63;20.60;;;5.70;99.90;;;;;;5070229;28;20239;-46
2024/03/12 07:57:31;;;;;;;25.77;20.77;;;5.70;99.90;;;;;;5085562;28;20186;-50
2024/03/12 07:59:58;;;;;;;27.70;21.67;;;5.70;99.90;;;;;;5077112;28;20983;-47
2024/03/12 08:02:25;;;;;;;30.57;21.50;;;5.70;99.90;;;;;;5080095;28;20245;-51
2024/03/12 08:04:52;;;;;;;28.67;22.03;;;5.80;99.90;;;;;;5074458;28;20825;-47
2024/03/12 08:07:21;;;;;;;27.50;21.37;;;5.80;99.90;;;;;;5064210;28;20396;-51
2024/03/12 08:09:49;;;;;;;25.73;20.40;;;5.80;99.90;;;;;;5065701;28;21460;-48
2024/03/12 08:12:16;;;;;;;25.67;20.30;;;5.80;99.90;;;;;;5092039;28;20220;-47
2024/03/12 08:14:44;;;;;;;27.80;21.97;;;5.80;99.90;;;;;;5086027;28;20205;-49
2024/03/12 08:17:13;;;;;;;27.67;21.10;;;5.80;99.90;;;;;;5082347;28;20271;-51
2024/03/12 08:19:40;;;;;;;27.73;20.70;;;5.80;99.90;;;;;;5069614;28;20690;-49
2024/03/12 08:22:08;;;;;;;28.73;20.70;;;5.90;99.90;;;;;;5068645;28;20325;-49
2024/03/12 08:24:38;;;;;;;27.63;21.03;;;5.90;99.90;;;;;;5080062;28;20208;-50
2024/03/12 08:27:06;;;;;;;28.80;21.57;;;6.00;99.90;;;;;;5071055;28;20305;-47
2024/03/12 08:29:33;;;;;;;30.13;22.57;;;6.00;99.90;;;;;;5081971;28;20194;-47
2024/03/12 08:32:00;;;;;;;27.50;20.80;;;6.00;99.90;;;;;;5074203;28;20275;-48
2024/03/12 08:34:27;;;;;;;26.97;21.70;;;6.10;99.90;;;;;;5067664;28;20209;-48
2024/03/12 08:36:55;;;;;;;26.13;20.60;;;6.10;99.90;;;;;;5093847;28;20190;-48
2024/03/12 08:39:22;;;;;;;28.90;21.33;;;6.10;99.90;;;;;;5058700;28;20203;-48
2024/03/12 08:41:50;;;;;;;30.23;21.63;;;6.20;99.90;;;;;;5074870;28;20225;-46
2024/03/12 08:44:18;;;;;;;29.47;22.43;;;6.20;99.90;;;;;;5083333;28;20186;-50
2024/03/12 08:46:45;;;;;;;27.13;20.17;;;6.30;99.90;;;;;;5079970;28;20301;-48
2024/03/12 08:49:12;;;;;;;27.97;20.77;;;6.30;99.90;;;;;;5076473;28;20194;-46
2024/03/12 08:51:39;;;;;;;29.83;21.30;;;6.40;99.90;;;;;;5094361;28;20186;-49
2024/03/12 08:54:06;;;;;;;26.03;20.33;;;6.40;99.90;;;;;;5059492;28;20214;-49
2024/03/12 08:56:36;;;;;;;26.37;20.00;;;6.40;99.90;;;;;;5083243;28;20203;-47
2024/03/12 08:59:05;;;;;;;26.70;21.27;;;6.50;99.90;;;;;;5071853;28;20548;-48
2024/03/12 09:01:32;;;;;;;28.93;21.83;;;6.50;99.90;;;;;;5087565;28;20194;-48
2024/03/12 09:03:59;;;;;;;29.67;21.77;;;6.60;99.90;;;;;;5087500;28;20220;-49
2024/03/12 09:06:26;;;;;;;28.83;21.40;;;6.60;99.90;;;;;;5077657;28;20201;-46
2024/03/12 09:08:54;;;;;;;27.77;21.40;;;6.60;99.90;;;;;;5061465;28;20327;-47
2024/03/12 09:11:21;;;;;;;33.17;22.30;;;6.60;99.90;;;;;;5088723;28;20189;-51
2024/03/12 09:13:48;;;;;;;26.33;20.60;;;6.60;99.90;;;;;;5074631;28;20205;-46
2024/03/12 09:16:17;;;;;;;27.43;21.13;;;6.70;99.90;;;;;;5097437;28;20262;-45
2024/03/12 09:18:44;;;;;;;26.63;20.30;;;6.70;99.90;;;;;;5084539;28;20438;-46
2024/03/12 09:21:12;;;;;;;28.77;21.47;;;6.70;99.90;;;;;;5080872;28;20234;-48
2024/03/12 09:23:39;;;;;;;32.73;21.70;;;6.70;99.90;;;;;;5073113;28;20220;-45
2024/03/12 09:26:08;;;;;;;29.57;21.33;;;6.80;99.90;;;;;;5080284;28;20205;-49
2024/03/12 09:28:36;;;;;;;27.93;21.67;;;6.80;99.90;;;;;;5083977;28;20574;-45
2024/03/12 09:31:04;;;;;;;26.77;19.70;;;6.80;99.90;;;;;;5088320;28;20186;-46
2024/03/12 09:33:34;;;;;;;27.67;19.77;;;6.90;99.90;;;;;;5073572;28;20243;-50
2024/03/12 09:36:01;;;;;;;26.00;20.57;;;6.90;99.90;;;;;;5080158;28;20202;-47
2024/03/12 09:38:28;;;;;;;29.60;20.50;;;7.00;99.90;;;;;;5088574;28;20528;-46
2024/03/12 09:40:59;;;;;;;25.43;20.57;;;7.10;99.90;;;;;;5056511;28;20213;-47
2024/03/12 09:43:32;;;;;;;29.70;20.67;;;7.10;99.90;;;;;;5080124;28;20267;-47
2024/03/12 09:46:00;;;;;;;27.27;20.43;;;7.10;99.90;;;;;;5085136;28;20285;-49
2024/03/12 09:48:29;;;;;;;26.50;20.97;;;7.10;99.90;;;;;;5089650;28;20713;-50
2024/03/12 09:50:58;;;;;;;28.97;22.13;;;7.20;99.90;;;;;;5085193;28;20201;-46
2024/03/12 09:53:26;;;;;;;32.73;21.67;;;7.20;99.90;;;;;;5071717;28;20220;-49
2024/03/12 09:55:54;;;;;;;28.23;20.80;;;7.30;99.90;;;;;;5066443;28;20203;-49
2024/03/12 09:58:21;;;;;;;26.17;20.90;;;7.40;99.90;;;;;;5081116;28;20570;-50
2024/03/12 10:00:48;;;;;;;28.77;20.70;;;7.40;99.90;;;;;;5077167;28;20209;-47
2024/03/12 10:03:18;;;;;;;30.40;21.47;;;7.40;99.90;;;;;;5076770;28;20214;-47
2024/03/12 10:05:46;;;;;;;26.67;20.60;;;7.50;99.90;;;;;;5077080;28;20561;-50
2024/03/12 10:08:16;;;;;;;23.67;19.90;;;7.50;99.90;;;;;;5078751;28;20716;-47
2024/03/12 10:10:45;;;;;;;27.80;20.43;;;7.70;99.90;;;;;;5075746;28;20195;-52
2024/03/12 10:13:15;;;;;;;26.10;19.93;;;7.70;99.90;;;;;;5085644;28;20243;-47
2024/03/12 10:15:50;;;;;;;28.93;20.63;;;7.80;99.90;;;;;;5081188;28;20198;-49
2024/03/12 10:18:18;;;;;;;24.77;18.37;;;7.90;99.90;;;;;;5093866;28;20251;-46
2024/03/12 10:20:49;;;;;;;28.43;19.17;;;7.90;99.90;;;;;;5091530;28;20221;-50
2024/03/12 10:23:20;;;;;;;26.67;19.50;;;8.00;99.90;;;;;;5088111;28;20338;-49
2024/03/12 10:25:49;;;;;;;27.00;18.40;;;8.00;99.90;;;;;;5084386;28;20207;-51
2024/03/12 10:28:17;;;;;;;25.67;18.50;;;8.10;99.90;;;;;;5062920;28;20210;-48
2024/03/12 10:30:45;;;;;;;24.87;19.37;;;8.10;99.90;;;;;;5071966;28;20275;-46
2024/03/12 10:33:17;;;;;;;29.10;19.20;;;8.20;99.90;;;;;;5092175;28;20241;-48
2024/03/12 10:35:45;;;;;;;22.60;18.97;;;8.20;99.90;;;;;;5092116;28;20197;-47
2024/03/12 10:38:14;;;;;;;26.20;19.83;;;8.20;99.90;;;;;;5085701;28;20193;-50
2024/03/12 10:40:42;;;;;;;22.83;18.87;;;8.30;99.90;;;;;;5086769;28;20197;-50
2024/03/12 10:43:09;;;;;;;25.47;18.73;;;8.40;99.90;;;;;;5057381;28;20230;-51
2024/03/12 10:45:38;;;;;;;24.87;17.87;;;8.40;99.90;;;;;;5076797;28;20553;-47
2024/03/12 10:48:09;;;;;;;24.80;19.57;;;8.40;99.90;;;;;;5098514;28;20223;-49
2024/03/12 10:50:40;;;;;;;24.37;18.77;;;8.40;99.90;;;;;;5091744;28;20248;-46
2024/03/12 10:53:08;;;;;;;26.17;18.80;;;8.50;99.90;;;;;;5086066;28;20221;-47
2024/03/12 10:55:36;;;;;;;25.40;18.17;;;8.50;99.90;;;;;;5085072;28;20199;-50
2024/03/12 10:58:07;;;;;;;26.67;18.77;;;8.60;99.90;;;;;;5062395;28;20277;-51
2024/03/12 11:00:35;;;;;;;24.23;18.63;;;8.60;99.90;;;;;;5088725;28;20221;-49
2024/03/12 11:03:02;;;;;;;23.77;18.87;;;8.70;99.90;;;;;;5080255;28;20220;-49
2024/03/12 11:05:29;;;;;;;22.30;18.20;;;8.80;99.90;;;;;;5089327;28;20281;-45
2024/03/12 11:07:59;;;;;;;22.70;19.20;;;8.90;99.90;;;;;;5084147;28;20212;-48
2024/03/12 11:10:28;;;;;;;24.43;18.37;;;8.90;99.90;;;;;;5082090;28;20935;-46
2024/03/12 11:12:56;;;;;;;28.30;20.57;;;9.00;99.90;;;;;;5061876;28;20651;-46
2024/03/12 11:15:25;;;;;;;25.23;18.37;;;9.10;99.90;;;;;;5085025;28;20621;-49
2024/03/12 11:17:53;;;;;;;26.77;17.90;;;9.20;99.90;;;;;;5080647;28;20193;-49
2024/03/12 11:20:23;;;;;;;24.20;18.10;;;9.30;99.90;;;;;;5093917;28;20294;-48
2024/03/12 11:22:55;;;;;;;25.87;19.13;;;9.30;99.90;;;;;;5088062;28;20300;-50
2024/03/12 11:25:33;;;;;;;23.67;17.73;;;9.50;99.90;;;;;;5095337;28;20273;-45
2024/03/12 11:28:23;;;;;;;24.10;17.37;;;9.70;99.90;;;;;;5059154;28;22184;-46
2024/03/12 11:31:01;;;;;;;24.30;18.10;;;9.80;99.90;;;;;;5083461;28;20204;-49
2024/03/12 11:33:42;;;;;;;29.97;19.77;;;9.90;99.90;;;;;;5081216;28;20294;-45
2024/03/12 11:36:09;;;;;;;27.20;20.63;;;10.00;99.90;;;;;;5090908;28;20205;-48
2024/03/12 11:38:37;;;;;;;29.07;18.47;;;10.00;99.90;;;;;;5094435;28;20657;-47
2024/03/12 11:41:04;;;;;;;26.70;18.33;;;10.00;99.90;;;;;;5081927;28;20202;-47
2024/03/12 11:43:37;;;;;;;27.73;19.80;;;10.10;99.90;;;;;;5093072;28;20210;-48
2024/03/12 11:46:06;;;;;;;30.80;20.30;;;10.10;99.90;;;;;;5063793;28;20210;-48
2024/03/12 11:48:35;;;;;;;29.07;20.57;;;10.20;99.90;;;;;;5083909;28;20220;-46
2024/03/12 11:51:04;;;;;;;33.83;21.03;;;10.20;99.90;;;;;;5092953;28;20197;-46
2024/03/12 11:53:33;;;;;;;29.67;21.33;;;10.20;99.90;;;;;;5088368;28;20217;-50
2024/03/12 11:56:11;;;;;;;34.77;22.13;;;10.40;99.90;;;;;;5089441;28;20285;-47
2024/03/12 11:58:41;;;;;;;35.13;23.40;;;10.40;99.90;;;;;;5079252;28;20288;-52
2024/03/12 12:01:11;;;;;;;33.33;23.67;;;10.40;99.90;;;;;;5082029;28;20225;-51
2024/03/12 12:03:38;;;;;;;41.13;27.27;;;10.40;99.90;;;;;;5078348;28;21535;-53
2024/03/12 12:06:06;;;;;;;37.23;26.73;;;10.50;99.90;;;;;;5081122;28;20252;-50
2024/03/12 12:08:33;;;;;;;35.10;24.07;;;10.50;99.90;;;;;;5083654;28;20289;-49
2024/03/12 12:11:02;;;;;;;40.27;25.13;;;10.50;99.90;;;;;;5086781;28;20349;-48
2024/03/12 12:13:30;;;;;;;38.13;25.03;;;10.60;99.90;;;;;;5083888;28;20236;-46
2024/03/12 12:15:59;;;;;;;41.67;26.53;;;10.60;99.90;;;;;;5060806;28;20217;-49
2024/03/12 12:18:29;;;;;;;40.83;25.63;;;10.60;99.90;;;;;;5070686;28;20606;-49
2024/03/12 12:20:59;;;;;;;39.70;25.17;;;10.60;99.90;;;;;;5067200;28;20201;-52
2024/03/12 12:23:27;;;;;;;37.20;24.70;;;10.60;99.90;;;;;;5078866;28;20229;-47
2024/03/12 12:25:55;;;;;;;35.60;24.70;;;10.60;99.90;;;;;;5080061;28;20575;-52
2024/03/12 12:28:25;;;;;;;42.07;25.47;;;10.70;99.90;;;;;;5074849;28;20249;-48
2024/03/12 12:30:55;;;;;;;36.87;25.07;;;10.70;99.90;;;;;;5063811;28;20329;-50
2024/03/12 12:33:25;;;;;;;38.47;25.67;;;10.80;99.90;;;;;;5080126;28;20240;-47
2024/03/12 12:35:56;;;;;;;38.07;23.97;;;10.80;99.90;;;;;;5072735;28;20205;-51
2024/03/12 12:38:25;;;;;;;38.47;25.80;;;10.80;99.90;;;;;;5086541;28;20253;-47
2024/03/12 12:40:55;;;;;;;38.30;24.23;;;10.80;99.90;;;;;;5080395;28;20264;-51
2024/03/12 12:43:22;;;;;;;33.00;22.40;;;10.80;99.90;;;;;;5083200;28;20909;-50
2024/03/12 12:45:54;;;;;;;32.67;22.47;;;10.90;99.90;;;;;;5081992;28;20194;-49